createdAt,value
2019-05-30T00:00:33.825Z,81.87
2019-05-30T00:03:06.903Z,81.34
2019-05-30T00:05:39.603Z,81.76
2019-05-30T00:08:12.241Z,81.88
2019-05-30T00:10:44.510Z,81.42
2019-05-30T00:13:17.601Z,81.34
2019-05-30T00:15:50.547Z,81.40
2019-05-30T00:18:24.119Z,81.40
2019-05-30T00:20:58.649Z,81.18
2019-05-30T00:23:30.923Z,81.10
2019-05-30T00:26:03.715Z,80.96
2019-05-30T00:28:37.239Z,80.89
2019-05-30T00:31:10.432Z,81.49
2019-05-30T00:33:52.973Z,81.45
2019-05-30T00:36:26.394Z,81.59
2019-05-30T00:38:59.754Z,81.84
2019-05-30T00:41:32.671Z,81.87
2019-05-30T00:44:06.318Z,81.97
2019-05-30T00:46:39.085Z,81.88
2019-05-30T00:49:12.173Z,81.74
2019-05-30T00:51:49.191Z,81.76
2019-05-30T00:54:33.804Z,81.97
2019-05-30T00:57:07.029Z,82.46
2019-05-30T00:59:40.785Z,81.87
2019-05-30T01:02:13.698Z,82.34
2019-05-30T01:04:47.536Z,82.29
2019-05-30T01:07:20.399Z,82.13
2019-05-30T01:09:52.737Z,82.47
2019-05-30T01:12:25.219Z,82.31
2019-05-30T01:14:57.445Z,81.99
2019-05-30T01:17:30.481Z,81.87
2019-05-30T01:20:03.206Z,82.12
2019-05-30T01:22:35.771Z,81.77
2019-05-30T01:25:09.903Z,81.84
2019-05-30T01:27:42.520Z,81.75
2019-05-30T01:30:15.996Z,81.75
2019-05-30T01:32:48.725Z,81.75
2019-05-30T01:35:31.463Z,81.82
2019-05-30T01:38:04.000Z,81.73
2019-05-30T01:40:35.938Z,81.94
2019-05-30T01:43:17.038Z,82.11
2019-05-30T01:45:48.946Z,82.01
2019-05-30T01:48:22.350Z,81.95
2019-05-30T01:50:54.723Z,81.85
2019-05-30T01:53:28.680Z,82.06
2019-05-30T01:56:00.798Z,81.78
2019-05-30T01:58:33.326Z,81.81
2019-05-30T02:01:18.938Z,81.55
2019-05-30T02:03:42.459Z,81.50
2019-05-30T02:06:15.233Z,81.31
2019-05-30T02:08:47.159Z,81.22
2019-05-30T02:11:19.278Z,81.18
2019-05-30T02:13:51.257Z,81.07
2019-05-30T02:16:24.078Z,81.13
2019-05-30T02:18:57.640Z,81.17
2019-05-30T02:21:30.333Z,81.17
2019-05-30T02:24:02.270Z,81.03
2019-05-30T02:26:34.678Z,81.02
2019-05-30T02:29:08.271Z,80.98
2019-05-30T02:31:42.399Z,81.02
2019-05-30T02:34:15.530Z,81.02
2019-05-30T02:36:50.173Z,80.97
2019-05-30T02:39:22.000Z,80.97
2019-05-30T02:41:54.786Z,80.94
2019-05-30T02:44:29.247Z,81.08
2019-05-30T02:47:03.560Z,81.04
2019-05-30T02:49:36.597Z,81.03
2019-05-30T02:52:10.697Z,80.84
2019-05-30T02:54:44.049Z,80.76
2019-05-30T02:57:17.113Z,80.81
2019-05-30T02:59:50.878Z,80.83
2019-05-30T03:02:23.248Z,80.85
2019-05-30T03:04:55.355Z,80.86
2019-05-30T03:07:28.192Z,80.89
2019-05-30T03:10:02.179Z,80.81
2019-05-30T03:12:35.151Z,80.80
2019-05-30T03:15:12.026Z,80.71
2019-05-30T03:17:43.783Z,80.71
2019-05-30T03:20:22.502Z,80.73
2019-05-30T03:22:51.000Z,80.56
2019-05-30T03:25:23.091Z,80.55
2019-05-30T03:27:55.250Z,80.49
2019-05-30T03:30:29.567Z,80.51
2019-05-30T03:33:11.793Z,80.52
2019-05-30T03:35:43.008Z,80.48
2019-05-30T03:38:11.017Z,80.50
2019-05-30T03:40:46.908Z,80.55
2019-05-30T03:43:20.058Z,80.48
2019-05-30T03:45:51.788Z,80.45
2019-05-30T03:48:26.436Z,80.46
2019-05-30T03:50:59.698Z,80.38
2019-05-30T03:53:33.011Z,80.44
2019-05-30T03:56:13.535Z,80.39
2019-05-30T03:59:08.071Z,80.49
2019-05-30T04:02:02.484Z,80.52
2019-05-30T04:04:39.969Z,80.48
2019-05-30T04:07:16.576Z,80.58
2019-05-30T04:09:52.010Z,80.54
2019-05-30T04:12:55.266Z,80.51
2019-05-30T04:15:39.045Z,80.62
2019-05-30T04:18:12.530Z,80.58
2019-05-30T04:20:45.157Z,80.72
2019-05-30T04:23:19.202Z,80.73
2019-05-30T04:25:51.725Z,80.76
2019-05-30T04:28:24.096Z,80.77
2019-05-30T04:30:58.789Z,80.77
2019-05-30T04:33:33.743Z,80.79
2019-05-30T04:36:06.227Z,80.87
2019-05-30T04:38:39.687Z,80.87
2019-05-30T04:41:13.655Z,80.92
2019-05-30T04:43:47.028Z,80.91
2019-05-30T04:46:21.827Z,80.93
2019-05-30T04:48:54.547Z,80.82
2019-05-30T04:51:26.389Z,80.88
2019-05-30T04:53:59.907Z,81.00
2019-05-30T04:56:32.966Z,80.89
2019-05-30T04:59:06.346Z,80.92
2019-05-30T05:01:38.805Z,81.18
2019-05-30T05:04:13.492Z,81.19
2019-05-30T05:06:46.468Z,81.12
2019-05-30T05:09:20.347Z,81.06
2019-05-30T05:11:52.523Z,81.07
2019-05-30T05:14:25.386Z,81.03
2019-05-30T05:16:59.036Z,80.98
2019-05-30T05:19:32.146Z,81.00
2019-05-30T05:22:03.825Z,81.05
2019-05-30T05:24:37.785Z,80.98
2019-05-30T05:27:10.173Z,80.91
2019-05-30T05:29:42.947Z,80.96
2019-05-30T05:32:16.102Z,81.08
2019-05-30T05:34:48.185Z,81.05
2019-05-30T05:37:21.212Z,81.17
2019-05-30T05:39:56.581Z,81.14
2019-05-30T05:42:30.304Z,81.06
2019-05-30T05:45:02.821Z,80.92
2019-05-30T05:47:35.541Z,81.18
2019-05-30T05:50:10.122Z,81.21
2019-05-30T05:52:42.760Z,81.25
2019-05-30T05:55:16.607Z,81.17
2019-05-30T05:57:51.162Z,81.27
2019-05-30T06:00:25.335Z,81.33
2019-05-30T06:02:58.080Z,81.66
2019-05-30T06:05:30.966Z,81.49
2019-05-30T06:08:05.941Z,81.47
2019-05-30T06:10:38.420Z,81.46
2019-05-30T06:13:10.901Z,81.43
2019-05-30T06:15:43.019Z,81.41
2019-05-30T06:18:16.505Z,81.39
2019-05-30T06:20:49.947Z,81.44
2019-05-30T06:23:21.643Z,81.42
2019-05-30T06:25:54.721Z,81.20
2019-05-30T06:28:28.379Z,81.46
2019-05-30T06:31:02.483Z,81.18
2019-05-30T06:33:34.820Z,81.25
2019-05-30T06:36:08.983Z,81.25
2019-05-30T06:38:42.121Z,80.98
2019-05-30T06:41:13.842Z,81.12
2019-05-30T06:43:46.743Z,81.17
2019-05-30T06:46:20.141Z,81.30
2019-05-30T06:48:52.704Z,80.99
2019-05-30T06:51:25.061Z,80.98
2019-05-30T06:53:58.341Z,80.88
2019-05-30T06:56:33.230Z,81.20
2019-05-30T06:59:06.504Z,80.97
2019-05-30T07:01:39.082Z,81.15
2019-05-30T07:04:11.508Z,81.20
2019-05-30T07:06:44.781Z,81.21
2019-05-30T07:09:18.324Z,81.10
2019-05-30T07:11:50.181Z,80.74
2019-05-30T07:14:25.109Z,80.67
2019-05-30T07:16:58.906Z,80.29
2019-05-30T07:19:32.101Z,80.64
2019-05-30T07:22:04.382Z,80.92
2019-05-30T07:24:37.842Z,80.87
2019-05-30T07:27:10.900Z,79.45
2019-05-30T07:29:44.342Z,78.95
2019-05-30T07:32:17.364Z,78.32
2019-05-30T07:35:05.203Z,79.13
2019-05-30T07:37:24.587Z,78.71
2019-05-30T07:39:57.701Z,78.71
2019-05-30T07:42:30.765Z,78.07
2019-05-30T07:45:03.200Z,77.91
2019-05-30T07:47:38.678Z,76.96
2019-05-30T07:50:11.881Z,77.64
2019-05-30T07:52:44.122Z,77.25
2019-05-30T07:55:16.421Z,77.15
2019-05-30T07:57:48.900Z,77.12
2019-05-30T08:00:23.561Z,75.94
2019-05-30T08:02:56.042Z,76.73
2019-05-30T08:05:30.628Z,77.37
2019-05-30T08:08:02.902Z,76.68
2019-05-30T08:10:36.090Z,76.99
2019-05-30T08:13:07.861Z,76.12
2019-05-30T08:15:44.051Z,75.02
2019-05-30T08:18:17.402Z,74.74
2019-05-30T08:20:50.982Z,75.25
2019-05-30T08:23:22.841Z,75.36
2019-05-30T08:25:55.400Z,75.70
2019-05-30T08:28:28.737Z,75.68
2019-05-30T08:31:01.963Z,76.14
2019-05-30T08:33:35.598Z,76.44
2019-05-30T08:36:07.995Z,76.29
2019-05-30T08:38:40.384Z,75.76
2019-05-30T08:41:12.382Z,75.74
2019-05-30T08:43:48.992Z,76.05
2019-05-30T08:46:21.301Z,76.31
2019-05-30T08:48:53.581Z,75.74
2019-05-30T08:51:27.568Z,76.00
2019-05-30T08:53:59.506Z,76.03
2019-05-30T08:56:33.020Z,76.18
2019-05-30T08:59:07.582Z,76.55
2019-05-30T09:01:42.140Z,76.73
2019-05-30T09:04:15.985Z,76.66
2019-05-30T09:06:49.065Z,76.88
2019-05-30T09:09:20.563Z,76.69
2019-05-30T09:12:05.997Z,76.67
2019-05-30T09:14:39.305Z,76.75
2019-05-30T09:17:12.883Z,76.84
2019-05-30T09:19:45.448Z,76.80
2019-05-30T09:22:17.334Z,76.66
2019-05-30T09:24:49.607Z,76.88
2019-05-30T09:27:22.242Z,76.11
2019-05-30T09:29:54.333Z,75.46
2019-05-30T09:32:29.106Z,75.37
2019-05-30T09:35:03.214Z,75.15
2019-05-30T09:37:35.177Z,74.66
2019-05-30T09:40:08.582Z,74.52
2019-05-30T09:42:42.696Z,73.88
2019-05-30T09:45:18.827Z,74.58
2019-05-30T09:47:51.490Z,74.27
2019-05-30T09:50:24.707Z,74.47
2019-05-30T09:52:56.605Z,74.06
2019-05-30T09:55:28.262Z,74.18
2019-05-30T09:57:59.441Z,73.86
2019-05-30T10:00:32.388Z,74.32
2019-05-30T10:03:03.500Z,74.21
2019-05-30T10:05:34.242Z,73.30
2019-05-30T10:08:05.679Z,72.39
2019-05-30T10:10:37.249Z,72.49
2019-05-30T10:13:07.580Z,70.97
2019-05-30T10:15:38.253Z,72.22
2019-05-30T10:18:08.970Z,72.52
2019-05-30T10:20:40.220Z,72.46
2019-05-30T10:23:11.040Z,72.65
2019-05-30T10:25:42.830Z,71.77
2019-05-30T10:28:13.391Z,71.74
2019-05-30T10:30:43.734Z,71.33
2019-05-30T10:33:14.956Z,71.53
2019-05-30T10:35:49.035Z,71.46
2019-05-30T10:38:21.234Z,71.08
2019-05-30T10:40:54.103Z,70.43
2019-05-30T10:43:35.053Z,70.68
2019-05-30T10:46:07.194Z,70.96
2019-05-30T10:48:39.333Z,71.31
2019-05-30T10:51:10.616Z,71.42
2019-05-30T10:53:42.992Z,70.43
2019-05-30T10:56:14.717Z,70.20
2019-05-30T10:58:46.995Z,70.65
2019-05-30T11:01:19.473Z,69.88
2019-05-30T11:03:50.612Z,67.11
2019-05-30T11:06:29.633Z,67.72
2019-05-30T11:09:04.132Z,67.77
2019-05-30T11:11:36.832Z,66.46
2019-05-30T11:14:08.832Z,67.60
2019-05-30T11:16:40.333Z,67.33
2019-05-30T11:19:13.901Z,68.00
2019-05-30T11:21:45.233Z,67.05
2019-05-30T11:24:16.418Z,67.29
2019-05-30T11:26:48.719Z,65.53
2019-05-30T11:29:22.033Z,66.27
2019-05-30T11:31:53.534Z,65.54
2019-05-30T11:34:25.974Z,64.59
2019-05-30T11:37:00.847Z,65.14
2019-05-30T11:39:32.433Z,64.36
2019-05-30T11:42:04.733Z,65.12
2019-05-30T11:44:38.452Z,64.43
2019-05-30T11:47:09.716Z,65.23
2019-05-30T11:49:44.097Z,64.84
2019-05-30T11:52:15.232Z,65.08
2019-05-30T11:54:47.653Z,65.14
2019-05-30T11:57:18.993Z,64.35
2019-05-30T11:59:52.214Z,64.43
2019-05-30T12:02:24.813Z,64.69
2019-05-30T12:04:58.640Z,63.47
2019-05-30T12:07:36.492Z,64.11
2019-05-30T12:10:04.333Z,63.37
2019-05-30T12:12:37.213Z,62.25
2019-05-30T12:15:09.953Z,62.53
2019-05-30T12:17:42.913Z,62.58
2019-05-30T12:20:15.235Z,61.74
2019-05-30T12:22:47.235Z,60.55
2019-05-30T12:25:19.720Z,61.33
2019-05-30T12:27:52.174Z,60.26
2019-05-30T12:30:26.039Z,61.80
2019-05-30T12:33:00.432Z,61.92
2019-05-30T12:35:32.132Z,60.84
2019-05-30T12:38:06.478Z,60.85
2019-05-30T12:40:37.553Z,61.43
2019-05-30T12:43:09.874Z,61.54
2019-05-30T12:45:41.496Z,61.47
2019-05-30T12:48:13.113Z,61.64
2019-05-30T12:50:45.412Z,61.35
2019-05-30T12:53:16.154Z,61.46
2019-05-30T12:55:49.036Z,61.21
2019-05-30T12:58:20.371Z,62.15
2019-05-30T13:00:52.352Z,62.23
2019-05-30T13:03:25.409Z,61.91
2019-05-30T13:05:59.086Z,62.00
2019-05-30T13:08:30.913Z,61.70
2019-05-30T13:11:02.050Z,61.95
2019-05-30T13:13:34.533Z,61.73
2019-05-30T13:16:08.793Z,61.69
2019-05-30T13:18:40.129Z,61.45
2019-05-30T13:21:13.592Z,61.66
2019-05-30T13:23:45.193Z,61.72
2019-05-30T13:26:17.314Z,61.87
2019-05-30T13:28:51.078Z,61.75
2019-05-30T13:31:25.935Z,61.13
2019-05-30T13:33:58.942Z,61.32
2019-05-30T13:36:31.255Z,61.12
2019-05-30T13:39:03.348Z,61.29
2019-05-30T13:41:36.040Z,61.25
2019-05-30T13:44:09.744Z,61.15
2019-05-30T13:46:42.641Z,61.37
2019-05-30T13:49:15.789Z,61.19
2019-05-30T13:51:50.353Z,60.65
2019-05-30T13:54:22.234Z,60.72
2019-05-30T13:56:54.036Z,60.44
2019-05-30T13:59:26.511Z,60.09
2019-05-30T14:01:59.843Z,60.54
2019-05-30T14:04:32.972Z,60.56
2019-05-30T14:07:06.516Z,60.36
2019-05-30T14:09:39.043Z,60.36
2019-05-30T14:12:12.490Z,60.31
2019-05-30T14:14:45.028Z,59.63
2019-05-30T14:17:17.800Z,60.08
2019-05-30T14:19:51.126Z,60.00
2019-05-30T14:22:24.974Z,58.09
2019-05-30T14:24:56.835Z,58.72
2019-05-30T14:27:28.833Z,58.16
2019-05-30T14:30:03.095Z,58.99
2019-05-30T14:32:36.752Z,58.85
2019-05-30T14:35:10.672Z,58.72
2019-05-30T14:37:43.027Z,58.97
2019-05-30T14:40:16.484Z,58.70
2019-05-30T14:42:47.794Z,58.81
2019-05-30T14:45:20.560Z,58.63
2019-05-30T14:47:52.802Z,58.71
2019-05-30T14:50:34.108Z,58.62
2019-05-30T14:53:06.807Z,58.10
2019-05-30T14:55:39.326Z,57.95
2019-05-30T14:58:11.201Z,58.05
2019-05-30T15:00:43.921Z,58.18
2019-05-30T15:03:16.104Z,58.42
2019-05-30T15:05:47.917Z,58.48
2019-05-30T15:08:19.437Z,57.98
2019-05-30T15:10:52.157Z,57.23
2019-05-30T15:13:24.597Z,57.82
2019-05-30T15:15:57.187Z,57.85
2019-05-30T15:18:29.677Z,58.07
2019-05-30T15:21:01.277Z,57.50
2019-05-30T15:23:33.840Z,57.63
2019-05-30T15:26:06.022Z,57.63
2019-05-30T15:28:37.676Z,57.57
2019-05-30T15:31:10.667Z,57.66
2019-05-30T15:33:42.417Z,57.74
2019-05-30T15:36:14.899Z,57.75
2019-05-30T15:38:46.517Z,57.66
2019-05-30T15:41:18.863Z,57.53
2019-05-30T15:43:50.516Z,57.86
2019-05-30T15:46:22.276Z,57.57
2019-05-30T15:48:54.156Z,57.57
2019-05-30T15:51:26.691Z,57.73
2019-05-30T15:53:59.097Z,57.62
2019-05-30T15:56:30.693Z,57.71
2019-05-30T15:59:02.699Z,57.61
2019-05-30T16:01:35.257Z,57.47
2019-05-30T16:04:07.177Z,57.37
2019-05-30T16:06:39.557Z,57.29
2019-05-30T16:09:12.630Z,57.27
2019-05-30T16:11:45.637Z,57.63
2019-05-30T16:14:17.327Z,57.86
2019-05-30T16:16:50.109Z,57.75
2019-05-30T16:19:26.292Z,57.75
2019-05-30T16:21:57.617Z,57.83
2019-05-30T16:24:31.408Z,57.60
2019-05-30T16:27:03.889Z,57.58
2019-05-30T16:29:35.579Z,57.62
2019-05-30T16:32:07.747Z,57.63
2019-05-30T16:34:40.832Z,57.37
2019-05-30T16:37:14.111Z,57.62
2019-05-30T16:40:06.007Z,57.88
2019-05-30T16:42:29.876Z,58.01
2019-05-30T16:45:03.085Z,57.55
2019-05-30T16:47:37.046Z,57.75
2019-05-30T16:50:09.876Z,57.68
2019-05-30T16:52:42.457Z,57.48
2019-05-30T16:55:15.781Z,57.88
2019-05-30T16:57:48.261Z,57.84
2019-05-30T17:00:22.008Z,57.67
2019-05-30T17:02:56.122Z,58.06
2019-05-30T17:05:40.701Z,57.86
2019-05-30T17:08:12.906Z,57.54
2019-05-30T17:10:48.913Z,57.75
2019-05-30T17:13:21.699Z,57.61
2019-05-30T17:15:54.870Z,57.60
2019-05-30T17:18:28.067Z,57.78
2019-05-30T17:20:59.824Z,58.01
2019-05-30T17:23:32.532Z,57.96
2019-05-30T17:26:06.320Z,57.95
2019-05-30T17:28:39.579Z,57.82
2019-05-30T17:31:12.108Z,57.68
2019-05-30T17:33:44.343Z,57.71
2019-05-30T17:36:18.052Z,57.64
2019-05-30T17:38:51.278Z,57.52
2019-05-30T17:41:24.801Z,57.62
2019-05-30T17:43:58.248Z,57.25
2019-05-30T17:46:31.001Z,57.61
2019-05-30T17:49:03.083Z,57.88
2019-05-30T17:51:35.555Z,57.66
2019-05-30T17:54:08.324Z,57.49
2019-05-30T17:56:40.025Z,57.61
2019-05-30T17:59:12.494Z,57.63
2019-05-30T18:01:52.733Z,57.45
2019-05-30T18:04:24.933Z,57.49
2019-05-30T18:06:57.670Z,57.60
2019-05-30T18:09:31.271Z,57.61
2019-05-30T18:12:06.940Z,57.75
2019-05-30T18:14:39.400Z,57.81
2019-05-30T18:17:11.425Z,57.76
2019-05-30T18:19:53.811Z,57.63
2019-05-30T18:22:27.592Z,57.91
2019-05-30T18:25:00.947Z,57.91
2019-05-30T18:27:33.022Z,58.11
2019-05-30T18:30:07.027Z,58.03
2019-05-30T18:32:49.805Z,58.10
2019-05-30T18:35:22.216Z,57.85
2019-05-30T18:37:54.814Z,58.19
2019-05-30T18:40:37.025Z,58.14
2019-05-30T18:43:11.197Z,58.22
2019-05-30T18:45:43.967Z,58.34
2019-05-30T18:48:16.068Z,58.29
2019-05-30T18:50:49.127Z,58.45
2019-05-30T18:53:21.647Z,58.48
2019-05-30T18:55:53.345Z,58.57
2019-05-30T18:58:26.789Z,58.52
2019-05-30T19:00:58.541Z,58.59
2019-05-30T19:03:51.406Z,58.71
2019-05-30T19:06:25.547Z,58.70
2019-05-30T19:08:57.930Z,58.87
2019-05-30T19:11:34.934Z,58.76
2019-05-30T19:14:07.860Z,58.85
2019-05-30T19:16:40.665Z,58.94
2019-05-30T19:19:13.159Z,58.92
2019-05-30T19:21:45.914Z,58.96
2019-05-30T19:24:26.031Z,59.13
2019-05-30T19:26:58.865Z,59.19
2019-05-30T19:29:39.065Z,59.16
2019-05-30T19:32:11.822Z,59.31
2019-05-30T19:34:44.877Z,59.32
2019-05-30T19:37:27.025Z,59.42
2019-05-30T19:39:58.778Z,59.52
2019-05-30T19:42:38.320Z,59.59
2019-05-30T19:45:11.736Z,59.64
2019-05-30T19:47:44.063Z,59.56
2019-05-30T19:50:17.177Z,59.63
2019-05-30T19:52:50.460Z,59.73
2019-05-30T19:55:24.567Z,59.71
2019-05-30T19:57:57.453Z,59.80
2019-05-30T20:00:57.251Z,59.77
2019-05-30T20:03:35.654Z,59.95
2019-05-30T20:06:05.465Z,59.98
2019-05-30T20:08:51.326Z,60.02
2019-05-30T20:11:11.987Z,60.06
2019-05-30T20:13:44.127Z,60.06
2019-05-30T20:16:16.418Z,60.22
2019-05-30T20:18:48.010Z,60.24
2019-05-30T20:21:20.919Z,60.31
2019-05-30T20:24:02.079Z,60.32
2019-05-30T20:26:36.650Z,60.31
2019-05-30T20:29:09.073Z,60.32
2019-05-30T20:31:43.482Z,60.39
2019-05-30T20:34:17.380Z,60.47
2019-05-30T20:36:49.811Z,60.47
2019-05-30T20:39:21.610Z,60.52
2019-05-30T20:41:54.131Z,60.55
2019-05-30T20:44:29.831Z,60.60
2019-05-30T20:47:03.761Z,60.58
2019-05-30T20:49:37.142Z,60.73
2019-05-30T20:52:10.718Z,60.77
2019-05-30T20:54:43.494Z,60.78
2019-05-30T20:57:16.057Z,60.79
2019-05-30T20:59:48.842Z,60.82
2019-05-30T21:02:22.454Z,60.85
2019-05-30T21:04:54.981Z,60.89
2019-05-30T21:07:29.707Z,60.91
2019-05-30T21:10:02.477Z,60.99
2019-05-30T21:12:41.044Z,60.92
2019-05-30T21:15:10.436Z,60.99
2019-05-30T21:17:46.109Z,61.09
2019-05-30T21:20:28.578Z,61.13
2019-05-30T21:23:10.825Z,61.25
2019-05-30T21:25:43.351Z,61.41
2019-05-30T21:28:15.187Z,61.45
2019-05-30T21:30:45.930Z,61.59
2019-05-30T21:33:17.771Z,61.76
2019-05-30T21:35:52.266Z,61.85
2019-05-30T21:38:24.289Z,61.96
2019-05-30T21:40:57.535Z,62.16
2019-05-30T21:43:29.377Z,62.48
2019-05-30T21:46:08.069Z,62.32
2019-05-30T21:48:42.806Z,62.48
2019-05-30T21:51:15.149Z,62.55
2019-05-30T21:53:48.115Z,62.75
2019-05-30T21:56:23.940Z,62.79
2019-05-30T21:58:56.316Z,63.08
2019-05-30T22:01:34.126Z,63.14
2019-05-30T22:04:07.688Z,63.26
2019-05-30T22:06:40.946Z,63.36
2019-05-30T22:09:14.339Z,63.50
2019-05-30T22:11:47.758Z,63.61
2019-05-30T22:14:20.199Z,63.76
2019-05-30T22:16:53.026Z,63.96
2019-05-30T22:19:26.654Z,63.99
2019-05-30T22:21:58.688Z,64.15
2019-05-30T22:24:30.947Z,64.35
2019-05-30T22:27:02.887Z,64.39
2019-05-30T22:29:35.498Z,64.61
2019-05-30T22:32:08.129Z,64.75
2019-05-30T22:34:42.655Z,64.85
2019-05-30T22:37:15.381Z,64.88
2019-05-30T22:39:50.932Z,65.12
2019-05-30T22:42:23.387Z,65.29
2019-05-30T22:44:56.514Z,65.41
2019-05-30T22:47:28.483Z,65.55
2019-05-30T22:50:00.747Z,65.71
2019-05-30T22:52:34.127Z,65.83
2019-05-30T22:55:06.599Z,65.83
2019-05-30T22:57:40.028Z,66.00
2019-05-30T23:00:12.832Z,66.10
2019-05-30T23:02:45.944Z,66.22
2019-05-30T23:05:19.113Z,66.43
2019-05-30T23:07:51.785Z,66.50
2019-05-30T23:10:24.440Z,66.74
2019-05-30T23:12:56.703Z,66.68
2019-05-30T23:15:28.488Z,66.88
2019-05-30T23:18:07.742Z,66.99
2019-05-30T23:20:40.109Z,67.09
2019-05-30T23:23:13.003Z,67.26
2019-05-30T23:25:45.357Z,67.41
2019-05-30T23:28:18.767Z,67.48
2019-05-30T23:30:51.975Z,67.65
2019-05-30T23:33:24.897Z,67.78
2019-05-30T23:35:56.789Z,67.83
2019-05-30T23:38:29.512Z,67.90
2019-05-30T23:41:02.537Z,68.02
2019-05-30T23:43:35.157Z,68.15
2019-05-30T23:46:07.843Z,68.27
2019-05-30T23:48:40.301Z,68.37
2019-05-30T23:51:12.761Z,68.49
2019-05-30T23:53:45.128Z,68.61
2019-05-30T23:56:17.289Z,68.73
2019-05-30T23:58:50.561Z,68.75
